Time;durP1;ratioP1;P1;durP2;ratioP2;P2;SDS_P1;SDS_P2;PMS_P1;PMS_P2;Temp;Humidity;BMP_temperature;BMP_pressure;BME280_temperature;BME280_humidity;BME280_pressure;Samples;Min_cycle;Max_cycle;Signal;HPM_P1;HPM_P2
2023/12/10 00:01:03;;;;;;;7.13;1.87;;;;;;;;;;20661001;28;20215;-81
2023/12/10 00:11:05;;;;;;;9.27;1.67;;;;;;;;;;20682848;28;20359;-81
2023/12/10 00:21:07;;;;;;;6.83;1.90;;;;;;;;;;20648286;28;20219;-81
2023/12/10 00:31:09;;;;;;;6.63;1.73;;;;;;;;;;20628415;28;20224;-81
2023/12/10 00:41:10;;;;;;;2.83;1.17;;;;;;;;;;20642052;28;20685;-82
2023/12/10 00:51:22;;;;;;;5.63;1.87;;;8.00;99.90;;;;;;20649589;28;20709;-82
2023/12/10 01:01:24;;;;;;;6.70;2.07;;;;;;;;;;20629761;28;20207;-82
2023/12/10 01:11:25;;;;;;;6.90;1.60;;;;;;;;;;20650688;28;20215;-79
2023/12/10 01:21:27;;;;;;;6.10;1.90;;;;;;;;;;20681865;28;20223;-81
2023/12/10 01:31:34;;;;;;;4.40;1.80;;;8.10;99.90;;;;;;20654769;28;20393;-81
2023/12/10 01:41:36;;;;;;;9.73;2.43;;;;;;;;;;20621313;28;20192;-79
2023/12/10 01:51:38;;;;;;;5.00;1.73;;;;;;;;;;20652812;28;20216;-80
2023/12/10 02:01:41;;;;;;;4.30;1.30;;;;;;;;;;20689596;28;20264;-81
2023/12/10 02:11:43;;;;;;;2.50;1.10;;;8.40;99.90;;;;;;20666330;28;20200;-79
2023/12/10 02:21:46;;;;;;;7.20;0.97;;;8.10;99.90;;;;;;20648761;28;20266;-81
2023/12/10 02:31:48;;;;;;;4.33;1.10;;;;;;;;;;20655996;28;20185;-81
2023/12/10 02:41:50;;;;;;;4.10;0.80;;;;;;;;;;20675645;28;20523;-80
2023/12/10 02:51:52;;;;;;;6.97;1.27;;;;;;;;;;20680707;28;20732;-82
2023/12/10 03:01:53;;;;;;;2.07;0.80;;;;;;;;;;20668480;28;20251;-80
2023/12/10 03:11:55;;;;;;;7.57;1.30;;;;;;;;;;20668067;28;20220;-81
2023/12/10 03:21:57;;;;;;;2.07;0.80;;;;;;;;;;20672283;28;20219;-81
2023/12/10 03:31:58;;;;;;;5.57;1.53;;;;;;;;;;20679946;28;20212;-81
2023/12/10 03:42:00;;;;;;;7.70;1.20;;;;;;;;;;20668188;28;20207;-81
2023/12/10 03:52:02;;;;;;;2.17;0.83;;;;;;;;;;20644417;28;20211;-80
2023/12/10 04:02:04;;;;;;;6.57;1.00;;;;;;;;;;20651812;28;20223;-81
2023/12/10 04:12:06;;;;;;;1.77;0.63;;;7.80;99.90;;;;;;20643456;28;20212;-80
2023/12/10 04:22:08;;;;;;;6.77;1.57;;;;;;;;;;20668271;28;20642;-80
2023/12/10 04:32:10;;;;;;;5.70;1.47;;;7.90;99.90;;;;;;20645511;28;20266;-79
2023/12/10 04:42:12;;;;;;;5.83;1.23;;;;;;;;;;20668576;28;20220;-80
2023/12/10 04:52:14;;;;;;;4.83;1.23;;;;;;;;;;20646598;28;20215;-78
2023/12/10 05:02:15;;;;;;;6.07;1.10;;;;;;;;;;20642429;28;20248;-80
2023/12/10 05:12:17;;;;;;;5.50;1.67;;;;;;;;;;20682008;28;20220;-79
2023/12/10 05:22:20;;;;;;;5.37;2.00;;;;;;;;;;20689276;28;20223;-78
2023/12/10 05:32:22;;;;;;;6.20;1.33;;;;;;;;;;20637133;28;20235;-80
2023/12/10 05:42:24;;;;;;;5.53;1.10;;;;;;;;;;20684109;28;20294;-79
2023/12/10 05:52:26;;;;;;;6.30;1.30;;;;;;;;;;20668847;28;20216;-79
2023/12/10 06:02:28;;;;;;;6.70;2.50;;;;;;;;;;20675775;28;20224;-79
2023/12/10 06:12:30;;;;;;;2.20;0.70;;;;;;;;;;20665961;28;20288;-79
2023/12/10 06:22:32;;;;;;;1.43;0.60;;;;;;;;;;20659708;28;20235;-78
2023/12/10 06:43:04;;;;;;;5.70;0.73;;;;;;;;;;20725939;28;20231;-64
2023/12/10 06:53:06;;;;;;;0.40;0.30;;;;;;;;;;20755184;28;20870;-64
2023/12/10 07:03:08;;;;;;;4.00;1.20;;;;;;;;;;20705336;28;20766;-64
2023/12/10 07:13:10;;;;;;;3.60;0.73;;;;;;;;;;20702936;28;20219;-65
2023/12/10 07:23:12;;;;;;;5.10;0.93;;;;;;;;;;20690000;28;20219;-65
2023/12/10 07:33:13;;;;;;;3.13;1.10;;;;;;;;;;20697639;28;20219;-65
2023/12/10 07:43:15;;;;;;;1.77;0.77;;;;;;;;;;20694567;28;20227;-65
2023/12/10 07:53:17;;;;;;;5.33;1.07;;;;;;;;;;20737012;28;20210;-65
2023/12/10 08:03:21;;;;;;;1.23;0.60;;;;;;;;;;20693753;28;20231;-66
2023/12/10 08:13:23;;;;;;;6.07;1.03;;;;;;;;;;20687451;28;20223;-66
2023/12/10 08:23:25;;;;;;;2.17;0.80;;;;;;;;;;20717837;28;20219;-65
2023/12/10 08:33:27;;;;;;;7.73;1.40;;;;;;;;;;20727348;28;20317;-66
2023/12/10 08:43:30;;;;;;;2.77;0.97;;;;;;;;;;20690631;28;20553;-66
2023/12/10 08:53:32;;;;;;;3.03;0.80;;;;;;;;;;20701273;28;20219;-66
2023/12/10 09:03:34;;;;;;;4.87;1.30;;;9.10;99.90;;;;;;20719994;28;20322;-65
2023/12/10 09:13:36;;;;;;;2.93;0.87;;;;;;;;;;20717850;28;20273;-65
2023/12/10 09:23:38;;;;;;;3.80;1.20;;;;;;;;;;20714493;28;20292;-65
2023/12/10 09:33:40;;;;;;;5.60;0.83;;;;;;;;;;20723607;28;20214;-66
2023/12/10 09:43:42;;;;;;;2.83;0.50;;;;;;;;;;20706163;28;20223;-65
2023/12/10 09:53:44;;;;;;;5.20;1.30;;;;;;;;;;20694015;28;20760;-66
2023/12/10 10:03:46;;;;;;;2.93;0.83;;;;;;;;;;20697559;28;20639;-66
2023/12/10 10:13:54;;;;;;;2.10;0.83;;;8.70;99.90;;;;;;20687172;28;20745;-66
2023/12/10 10:23:56;;;;;;;3.40;0.90;;;8.90;99.90;;;;;;20722866;28;20752;-66
2023/12/10 10:34:02;;;;;;;3.87;1.10;;;8.70;99.90;;;;;;20704721;28;20235;-66
2023/12/10 10:44:05;;;;;;;4.50;1.33;;;;;;;;;;20688972;28;20223;-66
2023/12/10 10:54:07;;;;;;;0.50;0.40;;;;;;;;;;20668876;28;20278;-66
2023/12/10 11:04:13;;;;;;;3.50;0.80;;;8.80;99.90;;;;;;20695677;28;20219;-66
2023/12/10 11:14:24;;;;;;;2.10;0.73;;;;;;;;;;20706386;28;20246;-66
2023/12/10 11:24:26;;;;;;;1.87;0.90;;;;;;;;;;20723080;28;20288;-66
2023/12/10 11:34:27;;;;;;;1.47;0.60;;;;;;;;;;20700884;28;20842;-66
2023/12/10 11:44:30;;;;;;;2.33;1.13;;;9.70;99.90;;;;;;20695106;28;20218;-66
2023/12/10 11:54:32;;;;;;;4.10;0.93;;;;;;;;;;20696652;28;20629;-66
2023/12/10 12:04:34;;;;;;;2.83;1.10;;;;;;;;;;20663973;28;20227;-66
2023/12/10 12:14:36;;;;;;;3.60;0.80;;;;;;;;;;20683390;28;20283;-66
2023/12/10 12:24:43;;;;;;;2.67;1.00;;;4.50;99.90;;;;;;20708770;28;20239;-66
2023/12/10 12:34:45;;;;;;;4.47;1.27;;;;;;;;;;20683309;28;20254;-66
2023/12/10 12:44:47;;;;;;;2.80;1.07;;;;;;;;;;20747058;28;20219;-66
2023/12/10 12:54:49;;;;;;;6.37;1.47;;;;;;;;;;20690863;28;20187;-65
2023/12/10 13:04:52;;;;;;;6.43;1.43;;;;;;;;;;20689009;28;20223;-65
2023/12/10 13:14:55;;;;;;;7.13;1.90;;;;;;;;;;20739000;28;20211;-65
2023/12/10 13:25:00;;;;;;;2.50;0.80;;;;;;;;;;20705260;28;20231;-65
2023/12/10 13:35:02;;;;;;;5.63;1.53;;;8.90;99.90;;;;;;20698231;28;20199;-65
2023/12/10 13:45:05;;;;;;;5.07;1.37;;;10.00;99.90;;;;;;20728053;28;20215;-65
2023/12/10 13:55:08;;;;;;;3.77;1.00;;;;;;;;;;20723217;28;20191;-65
2023/12/10 14:05:11;;;;;;;1.60;0.80;;;;;;;;;;20711239;28;20215;-65
2023/12/10 14:15:13;;;;;;;5.70;1.20;;;;;;;;;;20693289;28;20281;-65
2023/12/10 14:25:16;;;;;;;3.23;1.30;;;;;;;;;;20683858;28;20223;-65
2023/12/10 14:35:18;;;;;;;5.87;1.17;;;;;;;;;;20694949;28;20289;-65
2023/12/10 14:45:20;;;;;;;1.00;0.40;;;;;;;;;;20712418;28;20542;-65
2023/12/10 14:55:22;;;;;;;1.53;0.57;;;;;;;;;;20695542;28;20242;-65
2023/12/10 15:05:24;;;;;;;2.47;0.67;;;;;;;;;;20707671;28;20563;-65
2023/12/10 15:15:26;;;;;;;1.83;1.23;;;;;;;;;;20691340;28;20690;-65
2023/12/10 15:25:28;;;;;;;5.83;1.30;;;;;;;;;;20675794;28;20316;-64
2023/12/10 15:35:29;;;;;;;0.63;0.43;;;;;;;;;;20700060;28;20331;-63
2023/12/10 15:45:31;;;;;;;5.73;1.53;;;;;;;;;;20665530;28;20231;-65
2023/12/10 15:55:33;;;;;;;1.70;0.80;;;;;;;;;;20696245;28;20564;-65
2023/12/10 16:05:35;;;;;;;3.63;1.03;;;;;;;;;;20672573;28;20243;-65
2023/12/10 16:15:37;;;;;;;5.40;1.63;;;;;;;;;;20698020;28;20269;-65
2023/12/10 16:25:39;;;;;;;2.80;1.40;;;;;;;;;;20676846;28;20231;-64
2023/12/10 16:35:41;;;;;;;6.20;1.27;;;;;;;;;;20701535;28;20669;-65
2023/12/10 16:45:43;;;;;;;3.37;1.33;;;;;;;;;;20693093;28;20588;-65
2023/12/10 16:55:48;;;;;;;5.50;1.00;;;;;;;;;;20729381;28;20211;-65
2023/12/10 17:05:50;;;;;;;5.17;1.53;;;;;;;;;;20660055;28;20305;-65
2023/12/10 17:15:52;;;;;;;6.60;0.97;;;;;;;;;;20699936;28;20270;-65
2023/12/10 17:25:54;;;;;;;3.03;1.17;;;;;;;;;;20697366;28;20219;-67
2023/12/10 17:35:58;;;;;;;2.10;0.63;;;;;;;;;;20686330;28;20223;-66
2023/12/10 17:46:03;;;;;;;3.17;1.17;;;;;;;;;;20692664;28;20232;-66
2023/12/10 17:56:08;;;;;;;3.13;0.97;;;;;;;;;;20694735;28;20223;-67
2023/12/10 18:06:10;;;;;;;5.63;1.00;;;;;;;;;;20674848;28;20264;-66
2023/12/10 18:16:21;;;;;;;3.63;1.00;;;;;;;;;;20689982;28;20208;-66
2023/12/10 18:26:23;;;;;;;4.27;1.03;;;;;;;;;;20666761;28;20312;-67
2023/12/10 18:36:26;;;;;;;4.20;1.30;;;;;;;;;;20550338;28;20758;-67
2023/12/10 18:46:29;;;;;;;2.53;1.03;;;;;;;;;;20641761;28;20226;-67
2023/12/10 18:56:32;;;;;;;3.03;1.40;;;;;;;;;;20639160;28;20535;-66
2023/12/10 19:06:34;;;;;;;5.00;1.67;;;;;;;;;;20647206;28;20234;-66
2023/12/10 19:16:35;;;;;;;3.93;0.90;;;;;;;;;;20676955;28;20794;-66
2023/12/10 19:26:37;;;;;;;2.20;0.80;;;;;;;;;;20696128;28;20293;-65
2023/12/10 19:36:39;;;;;;;3.50;1.17;;;;;;;;;;20676131;28;20222;-66
2023/12/10 19:46:41;;;;;;;3.33;1.27;;;;;;;;;;20696885;28;20293;-66
2023/12/10 19:56:43;;;;;;;5.33;0.80;;;;;;;;;;20686662;28;20211;-66
2023/12/10 20:06:45;;;;;;;3.60;0.93;;;;;;;;;;20700820;28;20222;-66
2023/12/10 20:16:47;;;;;;;2.50;1.00;;;9.10;99.90;;;;;;20710343;28;20265;-66
2023/12/10 20:26:49;;;;;;;2.33;1.20;;;;;;;;;;20706108;28;20292;-65
2023/12/10 20:36:51;;;;;;;2.40;0.73;;;;;;;;;;20735089;28;20373;-66
2023/12/10 20:46:54;;;;;;;5.73;1.17;;;;;;;;;;20703866;28;20756;-65
2023/12/10 20:56:56;;;;;;;2.27;0.57;;;;;;;;;;20676599;28;20281;-66
2023/12/10 21:07:00;;;;;;;3.10;0.50;;;;;;;;;;20698721;28;20661;-66
2023/12/10 21:17:02;;;;;;;1.30;0.63;;;;;;;;;;20714764;28;20743;-65
2023/12/10 21:27:04;;;;;;;1.30;0.77;;;;;;;;;;20706582;28;20794;-66
2023/12/10 21:37:05;;;;;;;3.03;0.70;;;;;;;;;;20689153;23;20237;-81
2023/12/10 21:47:07;;;;;;;1.40;0.53;;;;;;;;;;20655025;28;20584;-80
2023/12/10 21:57:09;;;;;;;1.67;0.80;;;;;;;;;;20673306;28;20267;-81
2023/12/10 22:07:11;;;;;;;2.00;0.63;;;;;;;;;;20659030;28;20910;-80
2023/12/10 22:17:12;;;;;;;1.03;0.50;;;;;;;;;;20660976;28;20237;-81
2023/12/10 22:27:14;;;;;;;1.27;1.17;;;;;;;;;;20650237;28;20700;-81
2023/12/10 22:37:16;;;;;;;1.00;0.60;;;;;;;;;;20620854;28;20283;-81
2023/12/10 22:47:18;;;;;;;1.00;0.50;;;;;;;;;;20659567;28;20282;-81
2023/12/10 22:57:20;;;;;;;0.93;0.30;;;;;;;;;;20655496;28;20267;-82
2023/12/10 23:07:22;;;;;;;1.10;0.50;;;;;;;;;;20631338;28;20251;-81
2023/12/10 23:17:23;;;;;;;2.33;0.40;;;;;;;;;;20698540;28;20250;-78
2023/12/10 23:27:26;;;;;;;0.77;0.40;;;;;;;;;;20680344;28;20231;-82
2023/12/10 23:37:28;;;;;;;0.40;0.40;;;;;;;;;;20655827;28;20236;-81
2023/12/10 23:47:30;;;;;;;1.37;0.70;;;;;;;;;;20663887;28;20223;-80
2023/12/10 23:57:31;;;;;;;0.97;0.40;;;;;;;;;;20617425;28;20627;-81
